TimeEDT,TemperatureF,Dew PointF,Humidity,Sea Level PressureIn,VisibilityMPH,Wind Direction,Wind SpeedMPH,Gust SpeedMPH,PrecipitationIn,Events,Conditions,WindDirDegrees,DateUTC
12:51 AM,45.0,43.0,93,30.34,10.0,Calm,Calm,-,N/A,,Clear,0,2012-10-09 04:51:00
1:51 AM,46.0,43.0,89,30.35,10.0,Calm,Calm,-,N/A,,Overcast,0,2012-10-09 05:51:00
2:51 AM,46.0,44.1,93,30.33,10.0,Calm,Calm,-,N/A,,Overcast,0,2012-10-09 06:51:00
3:51 AM,46.4,44.6,93,30.32,10.0,NNW,3.5,-,N/A,,Overcast,340,2012-10-09 07:51:00
4:51 AM,46.9,45.0,93,30.32,10.0,North,4.6,-,N/A,,Scattered Clouds,350,2012-10-09 08:51:00
5:51 AM,48.0,45.0,89,30.33,10.0,North,3.5,-,N/A,,Overcast,350,2012-10-09 09:51:00
6:01 AM,46.4,44.6,93,30.33,10.0,NNW,3.5,-,N/A,,Overcast,340,2012-10-09 10:01:00
6:51 AM,48.0,45.0,89,30.32,10.0,North,4.6,-,N/A,,Mostly Cloudy,10,2012-10-09 10:51:00
7:51 AM,46.4,44.6,93,30.34,10.0,NNE,6.9,-,N/A,,Mostly Cloudy,30,2012-10-09 11:51:00
8:51 AM,50.0,45.0,83,30.33,10.0,NNE,8.1,-,N/A,,Scattered Clouds,30,2012-10-09 12:51:00
9:51 AM,51.8,44.6,76,30.33,10.0,NE,5.8,-,N/A,,Mostly Cloudy,50,2012-10-09 13:51:00
10:51 AM,54.0,46.0,75,30.33,10.0,NE,9.2,-,N/A,,Mostly Cloudy,50,2012-10-09 14:51:00
11:51 AM,55.0,45.0,69,30.31,10.0,East,13.8,-,N/A,,Mostly Cloudy,80,2012-10-09 15:51:00
12:51 PM,53.1,46.0,77,30.29,10.0,NE,10.4,-,0.00,Rain,Light Rain,50,2012-10-09 16:51:00
12:58 PM,53.6,46.4,77,30.29,8.0,NE,9.2,-,0.00,Rain,Light Rain,50,2012-10-09 16:58:00
1:51 PM,52.0,46.9,83,30.28,2.0,ENE,5.8,18.4,0.04,Rain,Rain,60,2012-10-09 17:51:00
2:51 PM,51.1,46.9,86,30.27,3.0,East,6.9,-,0.07,Rain,Light Rain,90,2012-10-09 18:51:00
3:34 PM,51.8,46.4,82,30.25,10.0,East,5.8,-,0.00,,Overcast,100,2012-10-09 19:34:00
3:51 PM,53.1,45.0,74,30.25,10.0,East,10.4,-,0.00,,Overcast,80,2012-10-09 19:51:00
4:10 PM,53.6,44.6,72,30.25,10.0,East,9.2,-,N/A,,Overcast,80,2012-10-09 20:10:00
4:51 PM,53.1,44.1,71,30.24,10.0,East,10.4,-,N/A,,Overcast,80,2012-10-09 20:51:00
5:51 PM,52.0,43.0,71,30.23,10.0,East,11.5,28.8,N/A,,Clear,80,2012-10-09 21:51:00
6:51 PM,51.1,41.0,68,30.22,10.0,East,9.2,-,N/A,,Clear,80,2012-10-09 22:51:00
7:51 PM,50.0,41.0,71,30.22,10.0,ENE,5.8,-,N/A,,Clear,70,2012-10-09 23:51:00
8:51 PM,46.9,41.0,80,30.21,10.0,NNE,3.5,-,N/A,,Clear,30,2012-10-10 00:51:00
9:51 PM,43.0,39.9,89,30.19,10.0,North,4.6,-,N/A,,Clear,350,2012-10-10 01:51:00
10:51 PM,43.0,39.9,89,30.19,10.0,North,3.5,-,N/A,,Clear,350,2012-10-10 02:51:00
11:51 PM,45.0,42.1,90,30.18,10.0,Calm,Calm,-,N/A,,Overcast,0,2012-10-10 03:51:00